Time;durP1;ratioP1;P1;durP2;ratioP2;P2;SDS_P1;SDS_P2;PMS_P1;PMS_P2;Temp;Humidity;BMP_temperature;BMP_pressure;BME280_temperature;BME280_humidity;BME280_pressure;Samples;Min_cycle;Max_cycle;Signal;HPM_P1;HPM_P2
2022/09/02 00:01:30;;;;;;;;;;;;;;;;;;5034292;28;1561;-72
2022/09/02 00:04:00;;;;;;;;;;;;;;;;;;5036595;28;1487;-72
2022/09/02 00:06:25;;;;;;;;;;;;;;;;;;5039560;28;1759;-72
2022/09/02 00:08:51;;;;;;;;;;;;;;;;;;5037423;28;1339;-72
2022/09/02 00:11:19;;;;;;;;;;;;;;;;;;5024562;28;1621;-72
2022/09/02 00:13:45;;;;;;;;;;;;;;;;;;5042336;28;1906;-72
2022/09/02 00:16:10;;;;;;;;;;;;;;;;;;5039670;28;1894;-71
2022/09/02 00:18:36;;;;;;;;;;;;;;;;;;5032462;28;1653;-71
2022/09/02 00:21:01;;;;;;;;;;;;;;;;;;5023458;28;1547;-71
2022/09/02 00:23:26;;;;;;;;;;;;;;;;;;5038940;28;1354;-71
2022/09/02 00:25:51;;;;;;;;;;;;;;;;;;5041787;28;1451;-71
2022/09/02 00:28:17;;;;;;;;;;;;;;;;;;5042614;28;1519;-71
2022/09/02 00:30:43;;;;;;;;;;;;;;;;;;5040877;28;1707;-71
2022/09/02 00:33:08;;;;;;;;;;;;;;;;;;5031011;28;1964;-71
2022/09/02 00:35:35;;;;;;;;;;;;;;;;;;5028164;28;1911;-71
2022/09/02 00:38:00;;;;;;;;;;;;;;;;;;5031956;28;1764;-71
2022/09/02 00:40:26;;;;;;;;;;;;;;;;;;5042753;28;898;-71
2022/09/02 00:42:52;;;;;;;;;;;;;;;;;;5042310;28;1523;-71
2022/09/02 00:45:18;;;;;;;;;;;;;;;;;;5040732;28;1945;-71
2022/09/02 00:47:49;;;;;;;;;;;;;;;;;;5033502;28;1569;-71
2022/09/02 00:50:16;;;;;;;;;;;;;;;;;;5041220;28;1751;-71
2022/09/02 00:52:46;;;;;;;;;;;;;;;;;;5033169;28;1556;-71
2022/09/02 00:55:15;;;;;;;;;;;;;;;;;;5030342;28;1261;-72
2022/09/02 00:57:46;;;;;;;;;;;;;;;;;;5028652;28;1464;-71
2022/09/02 01:00:11;;;;;;;;;;;;;;;;;;5041274;28;1573;-71
2022/09/02 01:02:38;;;;;;;;;;;;;;;;;;5038082;28;1643;-71
2022/09/02 01:05:05;;;;;;;;;;;;;;;;;;5032772;28;1581;-72
2022/09/02 01:07:35;;;;;;;;;;;;;;;;;;5037287;28;1619;-71
2022/09/02 01:10:01;;;;;;;;;;;;;;;;;;5028360;28;1743;-71
2022/09/02 01:12:28;;;;;;;;;;;;;;;;;;5032022;28;1580;-71
2022/09/02 01:14:53;;;;;;;;;;;;;;;;;;5032473;28;1898;-74
2022/09/02 01:17:19;;;;;;;;;;;;;;;;;;5030977;28;1577;-73
2022/09/02 01:19:47;;;;;;;;;;;;;;;;;;5036068;28;1621;-71
2022/09/02 01:22:21;;;;;;;;;;;;;;;;;;5038691;28;1573;-73
2022/09/02 01:24:46;;;;;;;;;;;;;;;;;;5032896;28;1597;-72
2022/09/02 01:27:16;;;;;;;;;;;;;;;;;;5041484;28;1364;-75
2022/09/02 01:29:41;;;;;;;;;;;;;;;;;;5033336;28;1513;-75
2022/09/02 01:32:06;;;;;;;;;;;;;;;;;;5029982;28;1597;-75
2022/09/02 01:34:32;;;;;;;;;;;;;;;;;;5040215;28;1879;-75
2022/09/02 01:36:57;;;;;;;;;;;;;;;;;;5032605;28;1538;-73
2022/09/02 01:39:22;;;;;;;;;;;;;;;;;;5029551;28;1320;-72
2022/09/02 01:41:47;;;;;;;;;;;;;;;;;;5029824;28;1554;-73
2022/09/02 01:44:15;;;;;;;;;;;;;;;;;;5041200;28;1496;-72
2022/09/02 01:46:40;;;;;;;;;;;;;;;;;;5039710;28;1926;-73
2022/09/02 01:49:05;;;;;;;;;;;;;;;;;;5033612;28;1268;-75
2022/09/02 01:51:30;;;;;;;;;;;;;;;;;;5035883;28;1957;-75
2022/09/02 01:53:56;;;;;;;;;;;;;;;;;;5029576;28;1957;-76
2022/09/02 01:56:21;;;;;;;;;;;;;;;;;;5037530;28;1523;-80
2022/09/02 01:58:46;;;;;;;;;;;;;;;;;;5040020;28;1615;-79
2022/09/02 02:01:11;;;;;;;;;;;;;;;;;;5034737;28;1601;-80
2022/09/02 02:03:37;;;;;;;;;;;;;;;;;;5032124;28;1918;-76
2022/09/02 02:06:07;;;;;;;;;;;;;;;;;;5031747;28;1629;-77
2022/09/02 02:08:32;;;;;;;;;;;;;;;;;;5029360;28;1978;-79
2022/09/02 02:10:57;;;;;;;;;;;;;;;;;;5033534;28;1283;-79
2022/09/02 02:13:22;;;;;;;;;;;;;;;;;;5031663;28;1893;-79
2022/09/02 02:15:47;;;;;;;;;;;;;;;;;;5031620;28;1636;-84
2022/09/02 02:18:13;;;;;;;;;;;;;;;;;;5032979;28;1251;-81
2022/09/02 02:20:38;;;;;;;;;;;;;;;;;;5032166;28;1620;-80
2022/09/02 02:23:04;;;;;;;;;;;;;;;;;;5036418;28;1268;-78
2022/09/02 02:25:30;;;;;;;;;;;;;;;;;;5018214;28;1643;-82
2022/09/02 02:27:55;;;;;;;;;;;;;;;;;;5033967;28;1227;-85
2022/09/02 02:30:20;;;;;;;;;;;;;;;;;;5036208;28;1635;-80
2022/09/02 02:32:46;;;;;;;;;;;;;;;;;;5034269;28;1392;-80
2022/09/02 02:35:12;;;;;;;;;;;;;;;;;;5031129;28;1963;-81
2022/09/02 02:37:37;;;;;;;;;;;;;;;;;;5034828;28;1565;-84
2022/09/02 02:40:03;;;;;;;;;;;;;;;;;;5031381;28;1069;-79
2022/09/02 02:42:29;;;;;;;;;;;;;;;;;;5015468;28;1915;-78
2022/09/02 02:44:54;;;;;;;;;;;;;;;;;;5028253;28;1684;-77
2022/09/02 02:47:19;;;;;;;;;;;;;;;;;;5033146;28;1625;-73
2022/09/02 02:49:45;;;;;;;;;;;;;;;;;;5035623;28;1085;-72
2022/09/02 02:52:10;;;;;;;;;;;;;;;;;;5032901;28;1576;-71
2022/09/02 02:54:35;;;;;;;;;;;;;;;;;;5030728;28;1910;-71
2022/09/02 02:57:01;;;;;;;;;;;;;;;;;;5030861;28;1479;-71
2022/09/02 02:59:28;;;;;;;;;;;;;;;;;;5026411;28;1526;-71
2022/09/02 03:01:53;;;;;;;;;;;;;;;;;;5030546;28;1604;-71
2022/09/02 03:04:18;;;;;;;;;;;;;;;;;;5030583;28;1247;-72
2022/09/02 03:06:43;;;;;;;;;;;;;;;;;;5012455;28;1554;-72
2022/09/02 03:09:09;;;;;;;;;;;;;;;;;;5030361;28;1585;-72
2022/09/02 03:11:34;;;;;;;;;;;;;;;;;;5029460;28;1283;-72
2022/09/02 03:13:59;;;;;;;;;;;;;;;;;;5026958;28;1898;-72
2022/09/02 03:16:24;;;;;;;;;;;;;;;;;;5028691;28;1596;-71
2022/09/02 03:18:50;;;;;;;;;;;;;;;;;;5026564;28;1239;-71
2022/09/02 03:21:16;;;;;;;;;;;;;;;;;;5033605;28;1608;-73
2022/09/02 03:23:42;;;;;;;;;;;;;;;;;;5029612;28;1362;-72
2022/09/02 03:26:11;;;;;;;;;;;;;;;;;;5027852;28;1632;-72
2022/09/02 03:28:37;;;;;;;;;;;;;;;;;;5018058;28;1331;-72
2022/09/02 03:31:02;;;;;;;;;;;;;;;;;;5034652;28;1624;-71
2022/09/02 03:33:27;;;;;;;;;;;;;;;;;;5037011;28;1902;-71
2022/09/02 03:35:52;;;;;;;;;;;;;;;;;;5028322;28;1319;-71
2022/09/02 03:38:18;;;;;;;;;;;;;;;;;;5034938;28;1915;-71
2022/09/02 03:40:43;;;;;;;;;;;;;;;;;;5032498;28;1310;-71
2022/09/02 03:43:08;;;;;;;;;;;;;;;;;;5037745;28;1337;-71
2022/09/02 03:45:35;;;;;;;;;;;;;;;;;;5030919;28;1588;-71
2022/09/02 03:48:00;;;;;;;;;;;;;;;;;;5034696;28;1243;-70
2022/09/02 03:50:28;;;;;;;;;;;;;;;;;;5034604;28;1605;-71
2022/09/02 03:52:53;;;;;;;;;;;;;;;;;;5036873;28;1899;-73
2022/09/02 03:55:19;;;;;;;;;;;;;;;;;;5033026;28;1298;-73
2022/09/02 03:57:44;;;;;;;;;;;;;;;;;;5029306;28;1314;-73
2022/09/02 04:00:10;;;;;;;;;;;;;;;;;;5032101;28;1681;-73
2022/09/02 04:02:35;;;;;;;;;;;;;;;;;;5034078;28;2012;-73
2022/09/02 04:05:01;;;;;;;;;;;;;;;;;;5032151;28;1247;-73
2022/09/02 04:07:26;;;;;;;;;;;;;;;;;;5034592;28;1572;-73
2022/09/02 04:09:51;;;;;;;;;;;;;;;;;;5029297;28;1565;-73
2022/09/02 04:12:16;;;;;;;;;;;;;;;;;;5030253;28;1654;-73
2022/09/02 04:14:42;;;;;;;;;;;;;;;;;;5036494;28;1890;-73
2022/09/02 04:23:13;;;;;;;;;;;;;;;;;;5032363;28;1366;-72
2022/09/02 04:25:42;;;;;;;;;;;;;;;;;;5032545;28;1622;-72
2022/09/02 04:28:07;;;;;;;;;;;;;;;;;;5036028;28;1910;-72
2022/09/02 04:30:32;;;;;;;;;;;;;;;;;;5032734;28;1613;-73
2022/09/02 04:32:58;;;;;;;;;;;;;;;;;;5027458;28;1976;-73
2022/09/02 04:35:23;;;;;;;;;;;;;;;;;;5031164;28;1616;-73
2022/09/02 04:37:48;;;;;;;;;;;;;;;;;;5033353;28;1314;-74
2022/09/02 04:40:13;;;;;;;;;;;;;;;;;;5031734;28;1352;-75
2022/09/02 04:42:39;;;;;;;;;;;;;;;;;;5035173;28;1320;-75
2022/09/02 04:45:04;;;;;;;;;;;;;;;;;;5031916;28;1655;-72
2022/09/02 04:47:30;;;;;;;;;;;;;;;;;;5033219;28;1387;-72
2022/09/02 04:49:55;;;;;;;;;;;;;;;;;;5029723;28;1617;-73
2022/09/02 04:52:20;;;;;;;;;;;;;;;;;;5034989;28;1332;-74
2022/09/02 04:54:46;;;;;;;;;;;;;;;;;;5033978;28;1894;-75
2022/09/02 04:57:11;;;;;;;;;;;;;;;;;;5032478;28;1260;-73
2022/09/02 04:59:36;;;;;;;;;;;;;;;;;;5033888;28;1251;-74
2022/09/02 05:02:03;;;;;;;;;;;;;;;;;;5032798;28;1609;-73
2022/09/02 05:04:29;;;;;;;;;;;;;;;;;;5030926;28;1623;-74
2022/09/02 05:06:56;;;;;;;;;;;;;;;;;;5034767;28;1509;-75
2022/09/02 05:09:22;;;;;;;;;;;;;;;;;;5032077;28;1160;-74
2022/09/02 05:11:47;;;;;;;;;;;;;;;;;;5037803;28;1376;-74
2022/09/02 05:14:14;;;;;;;;;;;;;;;;;;5030412;28;1968;-73
2022/09/02 05:16:41;;;;;;;;;;;;;;;;;;5032371;28;1601;-74
2022/09/02 05:19:09;;;;;;;;;;;;;;;;;;5030543;28;1167;-74
2022/09/02 05:21:34;;;;;;;;;;;;;;;;;;5034409;28;1590;-74
2022/09/02 05:23:59;;;;;;;;;;;;;;;;;;5037525;28;1283;-74
2022/09/02 05:26:25;;;;;;;;;;;;;;;;;;5029698;28;1304;-73
2022/09/02 05:28:50;;;;;;;;;;;;;;;;;;5032294;28;1660;-72
2022/09/02 05:31:16;;;;;;;;;;;;;;;;;;5035327;28;1580;-74
2022/09/02 05:33:42;;;;;;;;;;;;;;;;;;5032821;28;1894;-73
2022/09/02 05:36:11;;;;;;;;;;;;;;;;;;5013106;28;1657;-73
2022/09/02 05:38:36;;;;;;;;;;;;;;;;;;5033313;28;1077;-74
2022/09/02 05:41:06;;;;;;;;;;;;;;;;;;5049255;22;3778;-72
2022/09/02 05:43:33;;;;;;;;;;;;;;;;;;5048008;28;1548;-72
2022/09/02 05:46:02;;;;;;;;;;;;;;;;;;5045585;28;1515;-72
2022/09/02 05:51:11;;;;;;;;;;;;;;;;;;5037957;28;1525;-73
2022/09/02 05:53:36;;;;;;;;;;;;;;;;;;5042421;28;1907;-74
2022/09/02 05:56:03;;;;;;;;;;;;;;;;;;5049588;28;1302;-73
2022/09/02 05:58:30;;;;;;;;;;;;;;;;;;5049812;28;1277;-74
2022/09/02 06:00:55;;;;;;;;;;;;;;;;;;5038440;28;1449;-75
2022/09/02 06:03:20;;;;;;;;;;;;;;;;;;5041033;28;1579;-74
2022/09/02 06:05:58;;;;;;;;;;;;;;;;;;5045251;28;1602;-73
2022/09/02 06:08:23;;;;;;;;;;;;;;;;;;5045759;28;1318;-72
2022/09/02 06:10:48;;;;;;;;;;;;;;;;;;5046887;28;1332;-74
2022/09/02 06:13:14;;;;;;;;;;;;;;;;;;5047300;28;1890;-74
2022/09/02 06:15:42;;;;;;;;;;;;;;;;;;5045215;28;1584;-74
2022/09/02 06:18:08;;;;;;;;;;;;;;;;;;5047880;28;1204;-74
2022/09/02 06:20:33;;;;;;;;;;;;;;;;;;5040378;28;1675;-74
2022/09/02 06:22:58;;;;;;;;;;;;;;;;;;5044828;28;1303;-73
2022/09/02 06:25:23;;;;;;;;;;;;;;;;;;5034228;28;1238;-73
2022/09/02 06:27:48;;;;;;;;;;;;;;;;;;5042523;28;1238;-73
2022/09/02 06:30:14;;;;;;;;;;;;;;;;;;5040134;28;1596;-74
2022/09/02 06:32:39;;;;;;;;;;;;;;;;;;5048961;28;1768;-78
2022/09/02 06:35:06;;;;;;;;;;;;;;;;;;5049117;28;1898;-77
2022/09/02 06:37:32;;;;;;;;;;;;;;;;;;5045170;28;1432;-79
2022/09/02 06:39:57;;;;;;;;;;;;;;;;;;5050629;28;1224;-77
2022/09/02 06:42:22;;;;;;;;;;;;;;;;;;5040993;28;1497;-78
2022/09/02 06:44:48;;;;;;;;;;;;;;;;;;5051539;28;1945;-79
2022/09/02 06:47:13;;;;;;;;;;;;;;;;;;5038582;28;1555;-78
2022/09/02 06:49:38;;;;;;;;;;;;;;;;;;5041323;28;1391;-77
2022/09/02 06:52:04;;;;;;;;;;;;;;;;;;5048317;28;1317;-77
2022/09/02 06:54:29;;;;;;;;;;;;;;;;;;5047990;28;1961;-79
2022/09/02 06:56:55;;;;;;;;;;;;;;;;;;5051267;28;1297;-77
2022/09/02 06:59:20;;;;;;;;;;;;;;;;;;5053137;28;1293;-77
2022/09/02 07:01:46;;;;;;;;;;;;;;;;;;5047307;28;1321;-76
2022/09/02 07:06:55;;;;;;;;;;;;;;;;;;5051245;28;1230;-77
2022/09/02 07:09:22;;;;;;;;;;;;;;;;;;5052688;28;1431;-76
2022/09/02 07:11:47;;;;;;;;;;;;;;;;;;5056540;28;1374;-77
2022/09/02 07:14:13;;;;;;;;;;;;;;;;;;5049020;28;1898;-77
2022/09/02 07:16:41;;;;;;;;;;;;;;;;;;5047890;28;1534;-77
2022/09/02 07:19:07;;;;;;;;;;;;;;;;;;5046088;28;1702;-78
2022/09/02 07:21:32;;;;;;;;;;;;;;;;;;5053499;28;1352;-77
2022/09/02 07:23:58;;;;;;;;;;;;;;;;;;5053828;28;1250;-78
2022/09/02 07:26:24;;;;;;;;;;;;;;;;;;5054256;28;1147;-78
2022/09/02 07:28:49;;;;;;;;;;;;;;;;;;5054287;28;1309;-78
2022/09/02 07:31:15;;;;;;;;;;;;;;;;;;5050289;28;1262;-77
2022/09/02 07:33:40;;;;;;;;;;;;;;;;;;5039786;28;1922;-78
2022/09/02 07:36:09;;;;;;;;;;;;;;;;;;5050577;28;1565;-78
2022/09/02 07:38:34;;;;;;;;;;;;;;;;;;5050876;28;1304;-78
2022/09/02 07:40:59;;;;;;;;;;;;;;;;;;5050466;28;1321;-78
2022/09/02 07:43:26;;;;;;;;;;;;;;;;;;5047686;28;1491;-78
2022/09/02 07:45:54;;;;;;;;;;;;;;;;;;5044575;28;1474;-77
2022/09/02 07:48:19;;;;;;;;;;;;;;;;;;5044854;28;1338;-76
2022/09/02 07:50:46;;;;;;;;;;;;;;;;;;5044434;28;1320;-73
2022/09/02 07:53:12;;;;;;;;;;;;;;;;;;5050254;28;1906;-73
2022/09/02 07:55:39;;;;;;;;;;;;;;;;;;5051432;28;1465;-74
2022/09/02 07:58:05;;;;;;;;;;;;;;;;;;5052788;28;1345;-73
2022/09/02 08:00:30;;;;;;;;;;;;;;;;;;5049230;28;1481;-75
2022/09/02 08:02:55;;;;;;;;;;;;;;;;;;5042217;28;1351;-74
2022/09/02 08:05:21;;;;;;;;;;;;;;;;;;5043218;28;1379;-69
2022/09/02 08:07:46;;;;;;;;;;;;;;;;;;5040583;28;1414;-71
2022/09/02 08:10:11;;;;;;;;;;;;;;;;;;5046904;28;1561;-75
2022/09/02 08:12:38;;;;;;;;;;;;;;;;;;5046528;28;1620;-74
2022/09/02 08:15:04;;;;;;;;;;;;;;;;;;5050399;28;1957;-74
2022/09/02 08:17:29;;;;;;;;;;;;;;;;;;5048736;28;1564;-73
2022/09/02 08:19:55;;;;;;;;;;;;;;;;;;5049283;28;1410;-73
2022/09/02 08:22:21;;;;;;;;;;;;;;;;;;5038527;28;1456;-75
2022/09/02 08:24:46;;;;;;;;;;;;;;;;;;5048690;28;1179;-74
2022/09/02 08:27:11;;;;;;;;;;;;;;;;;;5050532;28;1279;-73
2022/09/02 08:29:36;;;;;;;;;;;;;;;;;;5053724;28;1278;-72
2022/09/02 08:32:02;;;;;;;;;;;;;;;;;;5041433;28;1608;-75
2022/09/02 08:34:27;;;;;;;;;;;;;;;;;;5047432;28;1894;-71
2022/09/02 08:36:53;;;;;;;;;;;;;;;;;;5044891;28;1321;-75
2022/09/02 08:39:18;;;;;;;;;;;;;;;;;;5052186;28;1270;-73
2022/09/02 08:42:02;;;;;;;;;;;;;;;;;;5047743;28;1569;-72
2022/09/02 08:44:28;;;;;;;;;;;;;;;;;;5045989;28;1336;-73
2022/09/02 08:46:55;;;;;;;;;;;;;;;;;;5046010;28;1653;-77
2022/09/02 08:49:33;;;;;;;;;;;;;;;;;;5052975;28;1485;-75
2022/09/02 08:52:00;;;;;;;;;;;;;;;;;;5051580;28;1283;-74
2022/09/02 08:54:29;;;;;;;;;;;;;;;;;;5050024;28;1886;-73
2022/09/02 08:56:54;;;;;;;;;;;;;;;;;;5045163;28;1529;-75
2022/09/02 08:59:24;;;;;;;;;;;;;;;;;;5049659;28;1322;-72
2022/09/02 09:01:53;;;;;;;;;;;;;;;;;;5046133;28;1456;-74
2022/09/02 09:04:30;;;;;;;;;;;;;;;;;;5049707;28;1395;-76
2022/09/02 09:06:56;;;;;;;;;;;;;;;;;;5049323;28;1291;-75
2022/09/02 09:09:45;;;;;;;;;;;;;;;;;;5050977;28;1305;-74
2022/09/02 09:12:28;;;;;;;;;;;;;;;;;;5022084;28;1401;-76
2022/09/02 09:15:03;;;;;;;;;;;;;;;;;;5052603;28;1894;-74
2022/09/02 09:17:31;;;;;;;;;;;;;;;;;;5050655;28;1566;-75
2022/09/02 09:19:59;;;;;;;;;;;;;;;;;;5042686;28;1406;-76
2022/09/02 09:22:36;;;;;;;;;;;;;;;;;;5042134;28;1362;-75
2022/09/02 09:25:01;;;;;;;;;;;;;;;;;;5051832;28;1255;-75
2022/09/02 09:27:27;;;;;;;;;;;;;;;;;;5047962;28;1250;-75
2022/09/02 09:29:52;;;;;;;;;;;;;;;;;;5048775;28;1254;-75
2022/09/02 09:32:24;;;;;;;;;;;;;;;;;;5048186;28;1436;-75
2022/09/02 09:34:52;;;;;;;;;;;;;;;;;;5049559;28;1962;-75
2022/09/02 09:37:38;;;;;;;;;;;;;;;;;;5049462;28;1609;-78
2022/09/02 09:40:24;;;;;;;;;;;;;;;;;;5048221;28;1361;-75
2022/09/02 09:42:55;;;;;;;;;;;;;;;;;;5051624;28;1374;-76
2022/09/02 09:45:56;;;;;;;;;;;;;;;;;;5055965;28;1752;-75
2022/09/02 09:48:28;;;;;;;;;;;;;;;;;;5006055;28;1374;-76
2022/09/02 09:50:53;;;;;;;;;;;;;;;;;;5041435;28;1313;-75
2022/09/02 09:53:26;;;;;;;;;;;;;;;;;;5054999;28;1906;-76
2022/09/02 09:55:51;;;;;;;;;;;;;;;;;;5044634;28;1745;-75
2022/09/02 09:58:17;;;;;;;;;;;;;;;;;;5049906;28;1275;-75
2022/09/02 10:00:42;;;;;;;;;;;;;;;;;;5048735;28;1545;-76
2022/09/02 10:03:18;;;;;;;;;;;;;;;;;;5051717;28;1207;-76
2022/09/02 10:05:43;;;;;;;;;;;;;;;;;;5044583;28;1405;-78
2022/09/02 10:08:14;;;;;;;;;;;;;;;;;;5048553;28;1781;-77
2022/09/02 10:10:44;;;;;;;;;;;;;;;;;;5050500;28;1483;-76
2022/09/02 10:13:19;;;;;;;;;;;;;;;;;;5049183;28;1898;-76
2022/09/02 10:16:02;;;;;;;;;;;;;;;;;;5042982;28;1423;-75
2022/09/02 10:18:34;;;;;;;;;;;;;;;;;;5045054;28;1420;-75
2022/09/02 10:21:19;;;;;;;;;;;;;;;;;;5040742;28;1424;-76
2022/09/02 10:23:44;;;;;;;;;;;;;;;;;;5047124;28;1454;-77
2022/09/02 10:26:12;;;;;;;;;;;;;;;;;;5046051;28;1241;-77
2022/09/02 10:28:44;;;;;;;;;;;;;;;;;;5045013;28;1427;-76
2022/09/02 10:31:10;;;;;;;;;;;;;;;;;;5051252;28;1299;-75
2022/09/02 10:33:56;;;;;;;;;;;;;;;;;;5048036;28;1963;-76
2022/09/02 10:36:36;;;;;;;;;;;;;;;;;;5047909;28;1377;-76
2022/09/02 10:39:21;;;;;;;;;;;;;;;;;;5048915;28;1132;-76
2022/09/02 10:41:47;;;;;;;;;;;;;;;;;;5047048;28;1191;-76
2022/09/02 10:44:32;;;;;;;;;;;;;;;;;;5054405;28;1318;-76
2022/09/02 10:47:03;;;;;;;;;;;;;;;;;;5054412;28;1453;-76
2022/09/02 10:49:28;;;;;;;;;;;;;;;;;;5043027;28;1440;-74
2022/09/02 10:52:16;;;;;;;;;;;;;;;;;;5046328;28;1410;-75
2022/09/02 10:55:00;;;;;;;;;;;;;;;;;;5040417;28;2094;-75
2022/09/02 10:57:29;;;;;;;;;;;;;;;;;;5042793;28;1248;-76
2022/09/02 10:59:57;;;;;;;;;;;;;;;;;;5052695;28;1188;-76
2022/09/02 11:02:30;;;;;;;;;;;;;;;;;;5043567;28;1425;-77
2022/09/02 11:05:02;;;;;;;;;;;;;;;;;;5049022;28;1270;-77
2022/09/02 11:07:33;;;;;;;;;;;;;;;;;;5040855;28;1561;-77
2022/09/02 11:10:02;;;;;;;;;;;;;;;;;;5058496;28;1134;-77
2022/09/02 11:12:33;;;;;;;;;;;;;;;;;;5047587;28;1732;-76
2022/09/02 11:15:16;;;;;;;;;;;;;;;;;;5049280;28;1898;-77
2022/09/02 11:17:46;;;;;;;;;;;;;;;;;;5048800;28;1228;-75
2022/09/02 11:20:11;;;;;;;;;;;;;;;;;;5049386;28;1508;-76
2022/09/02 11:22:38;;;;;;;;;;;;;;;;;;5049770;28;1584;-76
2022/09/02 11:25:09;;;;;;;;;;;;;;;;;;5053880;28;1254;-76
2022/09/02 11:27:40;;;;;;;;;;;;;;;;;;5057839;28;1242;-75
2022/09/02 11:30:05;;;;;;;;;;;;;;;;;;5052748;28;1374;-76
2022/09/02 11:32:33;;;;;;;;;;;;;;;;;;5048983;28;1402;-76
2022/09/02 11:35:02;;;;;;;;;;;;;;;;;;5048460;28;1890;-76
2022/09/02 11:37:31;;;;;;;;;;;;;;;;;;5041323;28;1563;-76
2022/09/02 11:40:02;;;;;;;;;;;;;;;;;;5055208;28;1160;-76
2022/09/02 11:42:30;;;;;;;;;;;;;;;;;;5054466;28;1287;-76
2022/09/02 11:45:13;;;;;;;;;;;;;;;;;;5048538;28;1378;-76
2022/09/02 11:47:54;;;;;;;;;;;;;;;;;;5050280;28;1115;-74
2022/09/02 11:50:39;;;;;;;;;;;;;;;;;;5042811;28;1337;-76
2022/09/02 11:53:04;;;;;;;;;;;;;;;;;;5043578;28;1420;-74
2022/09/02 11:55:33;;;;;;;;;;;;;;;;;;5044178;28;1898;-74
2022/09/02 11:57:59;;;;;;;;;;;;;;;;;;5047068;28;1369;-77
2022/09/02 12:00:25;;;;;;;;;;;;;;;;;;5050030;28;1388;-77
2022/09/02 12:02:56;;;;;;;;;;;;;;;;;;5053938;28;1282;-77
2022/09/02 12:05:30;;;;;;;;;;;;;;;;;;5051414;28;1265;-77
2022/09/02 12:08:01;;;;;;;;;;;;;;;;;;5048371;28;1273;-77
2022/09/02 12:10:41;;;;;;;;;;;;;;;;;;5050330;28;1281;-77
2022/09/02 12:13:07;;;;;;;;;;;;;;;;;;5055018;28;1206;-77
2022/09/02 12:15:37;;;;;;;;;;;;;;;;;;5045921;28;1957;-78
2022/09/02 12:18:13;;;;;;;;;;;;;;;;;;5051594;28;1342;-76
2022/09/02 12:20:40;;;;;;;;;;;;;;;;;;5045548;28;1607;-81
2022/09/02 12:23:06;;;;;;;;;;;;;;;;;;5061635;22;2315;-78
2022/09/02 12:25:37;;;;;;;;;;;;;;;;;;5052409;28;1329;-78
2022/09/02 12:28:14;;;;;;;;;;;;;;;;;;5049919;28;1467;-79
2022/09/02 12:31:07;;;;;;;;;;;;;;;;;;5049726;28;1232;-79
2022/09/02 12:33:32;;;;;;;;;;;;;;;;;;5050165;28;1910;-80
2022/09/02 12:35:58;;;;;;;;;;;;;;;;;;5028657;28;1703;-80
2022/09/02 12:38:28;;;;;;;;;;;;;;;;;;5048230;28;1421;-80
2022/09/02 12:41:00;;;;;;;;;;;;;;;;;;5048396;28;1460;-80
2022/09/02 12:43:29;;;;;;;;;;;;;;;;;;5049937;28;1364;-80
2022/09/02 12:45:59;;;;;;;;;;;;;;;;;;5050453;28;1352;-80
2022/09/02 12:48:26;;;;;;;;;;;;;;;;;;5048129;28;1475;-80
2022/09/02 12:50:54;;;;;;;;;;;;;;;;;;5046494;28;1380;-80
2022/09/02 12:53:22;;;;;;;;;;;;;;;;;;5047138;28;1902;-74
2022/09/02 12:55:56;;;;;;;;;;;;;;;;;;5047562;28;1832;-73
2022/09/02 12:58:22;;;;;;;;;;;;;;;;;;5049493;28;938;-74
2022/09/02 13:00:50;;;;;;;;;;;;;;;;;;5044436;28;1419;-78
2022/09/02 13:03:34;;;;;;;;;;;;;;;;;;5045803;28;1373;-80
2022/09/02 13:06:08;;;;;;;;;;;;;;;;;;5041393;28;1365;-81
2022/09/02 13:08:57;;;;;;;;;;;;;;;;;;5046701;28;1507;-81
2022/09/02 13:11:22;;;;;;;;;;;;;;;;;;5029886;28;1328;-81
2022/09/02 13:13:53;;;;;;;;;;;;;;;;;;5047810;28;1893;-81
2022/09/02 13:16:36;;;;;;;;;;;;;;;;;;5051632;28;1370;-80
2022/09/02 13:19:11;;;;;;;;;;;;;;;;;;5047420;28;1223;-80
2022/09/02 13:21:36;;;;;;;;;;;;;;;;;;5044022;28;1617;-81
2022/09/02 13:24:13;;;;;;;;;;;;;;;;;;5048981;28;1235;-81
2022/09/02 13:26:52;;;;;;;;;;;;;;;;;;5037865;28;1507;-81
2022/09/02 13:29:35;;;;;;;;;;;;;;;;;;5045653;28;1140;-81
2022/09/02 13:32:19;;;;;;;;;;;;;;;;;;5043899;28;1215;-81
2022/09/02 13:34:46;;;;;;;;;;;;;;;;;;5049066;28;1981;-81
2022/09/02 13:37:30;;;;;;;;;;;;;;;;;;5050773;28;1625;-81
2022/09/02 13:39:55;;;;;;;;;;;;;;;;;;5050768;28;1393;-81
2022/09/02 13:42:27;;;;;;;;;;;;;;;;;;5031799;28;1437;-79
2022/09/02 13:45:11;;;;;;;;;;;;;;;;;;5048523;28;1255;-74
2022/09/02 13:47:40;;;;;;;;;;;;;;;;;;5046597;28;1295;-75
2022/09/02 13:50:06;;;;;;;;;;;;;;;;;;5051642;28;1297;-77
2022/09/02 13:52:31;;;;;;;;;;;;;;;;;;5050985;28;1548;-78
2022/09/02 13:54:57;;;;;;;;;;;;;;;;;;5027426;28;1955;-78
2022/09/02 13:57:26;;;;;;;;;;;;;;;;;;5048501;28;1162;-78
2022/09/02 13:59:52;;;;;;;;;;;;;;;;;;5050440;28;1385;-79
2022/09/02 14:02:20;;;;;;;;;;;;;;;;;;5032554;28;1365;-78
2022/09/02 14:04:47;;;;;;;;;;;;;;;;;;5044916;28;1830;-78
2022/09/02 14:07:13;;;;;;;;;;;;;;;;;;5052920;28;1370;-79
2022/09/02 14:09:39;;;;;;;;;;;;;;;;;;5047745;28;1314;-79
2022/09/02 14:12:05;;;;;;;;;;;;;;;;;;5050667;28;1302;-79
2022/09/02 14:14:31;;;;;;;;;;;;;;;;;;5052484;28;1961;-80
2022/09/02 14:17:15;;;;;;;;;;;;;;;;;;5045939;28;1640;-80
2022/09/02 14:19:40;;;;;;;;;;;;;;;;;;5052066;28;1431;-80
2022/09/02 14:22:16;;;;;;;;;;;;;;;;;;5047755;28;1413;-80
2022/09/02 14:24:41;;;;;;;;;;;;;;;;;;5043521;28;1271;-80
2022/09/02 14:27:15;;;;;;;;;;;;;;;;;;5053282;28;1210;-80
2022/09/02 14:29:42;;;;;;;;;;;;;;;;;;5046398;28;1290;-81
2022/09/02 14:32:08;;;;;;;;;;;;;;;;;;5045008;28;1480;-81
2022/09/02 14:34:37;;;;;;;;;;;;;;;;;;5051031;28;2310;-80
2022/09/02 14:37:23;;;;;;;;;;;;;;;;;;5049221;28;1397;-80
2022/09/02 14:39:51;;;;;;;;;;;;;;;;;;5048258;28;1219;-80
2022/09/02 14:42:16;;;;;;;;;;;;;;;;;;5048700;28;1282;-80
2022/09/02 14:44:44;;;;;;;;;;;;;;;;;;5045496;28;1129;-79
2022/09/02 14:47:12;;;;;;;;;;;;;;;;;;5048494;28;1219;-80
2022/09/02 14:49:48;;;;;;;;;;;;;;;;;;5050682;28;1279;-80
2022/09/02 14:52:24;;;;;;;;;;;;;;;;;;5044996;28;1421;-81
2022/09/02 14:54:51;;;;;;;;;;;;;;;;;;5050030;28;1894;-80
2022/09/02 14:57:20;;;;;;;;;;;;;;;;;;5045883;28;1385;-80
2022/09/02 14:59:46;;;;;;;;;;;;;;;;;;5046840;28;1519;-80
2022/09/02 15:02:21;;;;;;;;;;;;;;;;;;5048412;28;1293;-79
2022/09/02 15:04:47;;;;;;;;;;;;;;;;;;5045304;28;1405;-80
2022/09/02 15:07:12;;;;;;;;;;;;;;;;;;5048478;28;1413;-80
2022/09/02 15:09:37;;;;;;;;;;;;;;;;;;5028316;28;1298;-80
2022/09/02 15:12:02;;;;;;;;;;;;;;;;;;5044767;28;1282;-80
2022/09/02 15:14:28;;;;;;;;;;;;;;;;;;5049853;28;1897;-80
2022/09/02 15:16:54;;;;;;;;;;;;;;;;;;5052109;28;1405;-80
2022/09/02 15:19:19;;;;;;;;;;;;;;;;;;5049479;28;1284;-80
2022/09/02 15:21:44;;;;;;;;;;;;;;;;;;5048008;28;1312;-80
2022/09/02 15:24:09;;;;;;;;;;;;;;;;;;5046620;28;1404;-79
2022/09/02 15:26:34;;;;;;;;;;;;;;;;;;5047093;28;1354;-80
2022/09/02 15:29:01;;;;;;;;;;;;;;;;;;5052364;28;1275;-80
2022/09/02 15:31:26;;;;;;;;;;;;;;;;;;5055948;28;1271;-80
2022/09/02 15:33:51;;;;;;;;;;;;;;;;;;5048951;28;1910;-80
2022/09/02 15:36:17;;;;;;;;;;;;;;;;;;5044167;28;1401;-79
2022/09/02 15:38:42;;;;;;;;;;;;;;;;;;5056521;28;1147;-81
2022/09/02 15:41:11;;;;;;;;;;;;;;;;;;5053271;28;1163;-75
2022/09/02 15:43:37;;;;;;;;;;;;;;;;;;5051559;28;1259;-75
2022/09/02 15:46:02;;;;;;;;;;;;;;;;;;5053425;28;1452;-76
2022/09/02 15:48:30;;;;;;;;;;;;;;;;;;5050306;28;1409;-80
2022/09/02 15:50:56;;;;;;;;;;;;;;;;;;5052956;28;1331;-77
2022/09/02 15:53:21;;;;;;;;;;;;;;;;;;5036031;28;1422;-77
2022/09/02 15:55:46;;;;;;;;;;;;;;;;;;5048741;28;1894;-76
2022/09/02 15:58:11;;;;;;;;;;;;;;;;;;5048919;28;1665;-73
2022/09/02 16:00:36;;;;;;;;;;;;;;;;;;5048049;28;1231;-74
2022/09/02 16:03:02;;;;;;;;;;;;;;;;;;5040226;28;2200;-74
2022/09/02 16:05:29;;;;;;;;;;;;;;;;;;5039580;28;2138;-74
2022/09/02 16:07:54;;;;;;;;;;;;;;;;;;5045508;28;1994;-74
2022/09/02 16:10:20;;;;;;;;;;;;;;;;;;5032636;28;1485;-74
2022/09/02 16:12:47;;;;;;;;;;;;;;;;;;5054599;28;1401;-75
2022/09/02 16:15:12;;;;;;;;;;;;;;;;;;5049614;28;1969;-75
2022/09/02 16:17:37;;;;;;;;;;;;;;;;;;5055082;28;1557;-75
2022/09/02 16:20:03;;;;;;;;;;;;;;;;;;5049910;28;2066;-75
2022/09/02 16:22:28;;;;;;;;;;;;;;;;;;5051409;28;1615;-75
2022/09/02 16:24:54;;;;;;;;;;;;;;;;;;5051093;28;1394;-75
2022/09/02 16:27:50;;;;;;;;;;;;;;;;;;5031829;28;1361;-75
2022/09/02 16:30:04;;;;;;;;;;;;;;;;;;5050955;28;1614;-74
2022/09/02 16:32:29;;;;;;;;;;;;;;;;;;5052742;28;1251;-75
2022/09/02 16:34:56;;;;;;;;;;;;;;;;;;5049581;28;1901;-75
2022/09/02 16:37:22;;;;;;;;;;;;;;;;;;5046879;28;1421;-75
2022/09/02 16:39:47;;;;;;;;;;;;;;;;;;5051377;28;1396;-75
2022/09/02 16:42:12;;;;;;;;;;;;;;;;;;5053590;28;1238;-75
2022/09/02 16:44:40;;;;;;;;;;;;;;;;;;5051614;28;1385;-75
2022/09/02 16:47:05;;;;;;;;;;;;;;;;;;5029051;28;1246;-74
2022/09/02 16:49:30;;;;;;;;;;;;;;;;;;5053013;28;1331;-75
2022/09/02 16:51:55;;;;;;;;;;;;;;;;;;5051135;28;1356;-75
2022/09/02 16:54:20;;;;;;;;;;;;;;;;;;5054461;28;1886;-75
2022/09/02 16:56:46;;;;;;;;;;;;;;;;;;5029256;28;1892;-75
2022/09/02 16:59:11;;;;;;;;;;;;;;;;;;5052722;28;1147;-75
2022/09/02 17:01:37;;;;;;;;;;;;;;;;;;5051110;28;1313;-75
2022/09/02 17:04:02;;;;;;;;;;;;;;;;;;5055547;28;1274;-75
2022/09/02 17:06:28;;;;;;;;;;;;;;;;;;5047309;28;1472;-75
2022/09/02 17:08:53;;;;;;;;;;;;;;;;;;5050014;28;1298;-75
2022/09/02 17:11:29;;;;;;;;;;;;;;;;;;5048354;28;1388;-76
2022/09/02 17:13:56;;;;;;;;;;;;;;;;;;5047031;28;1894;-74
2022/09/02 17:16:22;;;;;;;;;;;;;;;;;;5054991;28;1298;-74
2022/09/02 17:18:48;;;;;;;;;;;;;;;;;;5047671;28;1373;-76
2022/09/02 17:21:46;;;;;;;;;;;;;;;;;;5054098;28;1241;-76